createdAt,value
2024-01-10T00:00:44.484Z,-3.42
2024-01-10T00:03:11.612Z,-3.51
2024-01-10T00:05:38.690Z,-3.49
2024-01-10T00:08:07.731Z,-3.43
2024-01-10T00:10:34.767Z,-3.43
2024-01-10T00:13:01.906Z,-3.40
2024-01-10T00:15:29.011Z,-3.43
2024-01-10T00:17:56.115Z,-3.40
2024-01-10T00:20:23.309Z,-3.41
2024-01-10T00:22:50.797Z,-3.41
2024-01-10T00:25:17.988Z,-3.36
2024-01-10T00:27:44.978Z,-3.35
2024-01-10T00:30:12.290Z,-3.40
2024-01-10T00:32:39.442Z,-3.40
2024-01-10T00:35:06.695Z,-3.44
2024-01-10T00:37:33.955Z,-3.44
2024-01-10T00:40:00.984Z,-3.44
2024-01-10T00:42:28.090Z,-3.46
2024-01-10T00:44:55.423Z,-3.41
2024-01-10T00:47:22.552Z,-3.39
2024-01-10T00:49:49.725Z,-3.38
2024-01-10T00:52:16.847Z,-3.39
2024-01-10T00:54:45.555Z,-3.41
2024-01-10T00:57:12.632Z,-3.38
2024-01-10T00:59:40.414Z,-3.38
2024-01-10T01:02:07.617Z,-3.38
2024-01-10T01:04:34.752Z,-3.36
2024-01-10T01:07:01.786Z,-3.40
2024-01-10T01:09:28.768Z,-3.47
2024-01-10T01:11:55.946Z,-3.54
2024-01-10T01:14:23.196Z,-3.54
2024-01-10T01:16:50.281Z,-3.54
2024-01-10T01:19:17.455Z,-3.58
2024-01-10T01:21:44.996Z,-3.54
2024-01-10T01:24:12.696Z,-3.52
2024-01-10T01:26:39.780Z,-3.54
2024-01-10T01:29:07.235Z,-3.59
2024-01-10T01:31:34.375Z,-3.60
2024-01-10T01:34:01.601Z,-3.49
2024-01-10T01:36:28.721Z,-3.45
2024-01-10T01:38:55.841Z,-3.49
2024-01-10T01:41:23.006Z,-3.52
2024-01-10T01:43:50.341Z,-3.53
2024-01-10T01:46:17.707Z,-3.57
2024-01-10T01:48:45.667Z,-3.58
2024-01-10T01:51:16.496Z,-3.58
2024-01-10T01:53:47.001Z,-3.60
2024-01-10T01:56:16.329Z,-3.62
2024-01-10T01:58:46.557Z,-3.62
2024-01-10T02:01:14.268Z,-3.63
2024-01-10T02:03:41.689Z,-3.64
2024-01-10T02:06:09.020Z,-3.65
2024-01-10T02:08:37.542Z,-3.67
2024-01-10T02:11:06.674Z,-3.72
2024-01-10T02:13:34.835Z,-3.71
2024-01-10T02:16:04.982Z,-3.73
2024-01-10T02:18:32.882Z,-3.72
2024-01-10T02:21:00.055Z,-3.72
2024-01-10T02:23:27.182Z,-3.70
2024-01-10T02:25:54.491Z,-3.72
2024-01-10T02:28:21.639Z,-3.69
2024-01-10T02:30:48.926Z,-3.65
2024-01-10T02:33:16.102Z,-3.62
2024-01-10T02:35:43.232Z,-3.67
2024-01-10T02:38:10.367Z,-3.59
2024-01-10T02:40:37.661Z,-3.57
2024-01-10T02:43:05.044Z,-3.57
2024-01-10T02:45:32.136Z,-3.60
2024-01-10T02:47:59.306Z,-3.57
2024-01-10T02:50:26.427Z,-3.57
2024-01-10T02:52:53.548Z,-3.56
2024-01-10T02:55:20.666Z,-3.53
2024-01-10T02:57:47.770Z,-3.52
2024-01-10T03:00:15.513Z,-3.57
2024-01-10T03:02:42.613Z,-3.58
2024-01-10T03:05:09.914Z,-3.59
2024-01-10T03:07:37.106Z,-3.59
2024-01-10T03:10:05.444Z,-3.61
2024-01-10T03:12:32.484Z,-3.63
2024-01-10T03:15:00.379Z,-3.66
2024-01-10T03:17:27.495Z,-3.65
2024-01-10T03:19:54.579Z,-3.65
2024-01-10T03:22:21.655Z,-3.67
2024-01-10T03:24:49.237Z,-3.67
2024-01-10T03:27:16.287Z,-3.65
2024-01-10T03:29:43.299Z,-3.64
2024-01-10T03:32:10.496Z,-3.60
2024-01-10T03:34:37.615Z,-3.61
2024-01-10T03:37:05.085Z,-3.68
2024-01-10T03:39:32.197Z,-3.67
2024-01-10T03:41:59.223Z,-3.64
2024-01-10T03:44:28.678Z,-3.61
2024-01-10T03:46:56.172Z,-3.66
2024-01-10T03:49:24.200Z,-3.63
2024-01-10T03:51:51.323Z,-3.60
2024-01-10T03:54:18.377Z,-3.59
2024-01-10T03:56:45.477Z,-3.58
2024-01-10T03:59:12.563Z,-3.57
2024-01-10T04:01:40.839Z,-3.56
2024-01-10T04:04:07.903Z,-3.57
2024-01-10T04:06:36.170Z,-3.57
2024-01-10T04:09:04.197Z,-3.57
2024-01-10T04:11:31.282Z,-3.56
2024-01-10T04:13:58.599Z,-3.55
2024-01-10T04:16:27.357Z,-3.54
2024-01-10T04:18:54.399Z,-3.51
2024-01-10T04:21:22.904Z,-3.51
2024-01-10T04:23:49.973Z,-3.59
2024-01-10T04:26:17.163Z,-3.56
2024-01-10T04:28:44.353Z,-3.55
2024-01-10T04:31:11.557Z,-3.49
2024-01-10T04:33:38.658Z,-3.51
2024-01-10T04:36:06.083Z,-3.52
2024-01-10T04:38:33.380Z,-3.59
2024-01-10T04:41:00.553Z,-3.67
2024-01-10T04:43:27.670Z,-3.60
2024-01-10T04:45:54.769Z,-3.60
2024-01-10T04:48:21.927Z,-3.58
2024-01-10T04:50:49.195Z,-3.59
2024-01-10T04:53:16.322Z,-3.55
2024-01-10T04:55:43.468Z,-3.54
2024-01-10T04:58:10.547Z,-3.51
2024-01-10T05:00:38.010Z,-3.54
2024-01-10T05:03:05.415Z,-3.56
2024-01-10T05:05:32.630Z,-3.54
2024-01-10T05:07:59.786Z,-3.53
2024-01-10T05:10:26.882Z,-3.55
2024-01-10T05:12:53.930Z,-3.52
2024-01-10T05:15:21.117Z,-3.49
2024-01-10T05:17:48.288Z,-3.50
2024-01-10T05:20:15.439Z,-3.53
2024-01-10T05:22:44.729Z,-3.54
2024-01-10T05:25:11.808Z,-3.55
2024-01-10T05:27:38.871Z,-3.53
2024-01-10T05:30:07.059Z,-3.55
2024-01-10T05:32:34.163Z,-3.57
2024-01-10T05:35:01.907Z,-3.62
2024-01-10T05:37:29.049Z,-3.66
2024-01-10T05:39:56.126Z,-3.70
2024-01-10T05:42:23.184Z,-3.69
2024-01-10T05:44:50.215Z,-3.65
2024-01-10T05:47:17.305Z,-3.68
2024-01-10T05:49:44.453Z,-3.65
2024-01-10T05:52:11.791Z,-3.66
2024-01-10T05:54:39.968Z,-3.61
2024-01-10T05:57:07.326Z,-3.61
2024-01-10T05:59:34.367Z,-3.61
2024-01-10T06:02:01.426Z,-3.60
2024-01-10T06:04:29.459Z,-3.60
2024-01-10T06:06:56.540Z,-3.62
2024-01-10T06:09:23.616Z,-3.64
2024-01-10T06:11:51.188Z,-3.64
2024-01-10T06:14:18.902Z,-3.66
2024-01-10T06:16:46.806Z,-3.64
2024-01-10T06:19:13.999Z,-3.64
2024-01-10T06:21:41.159Z,-3.63
2024-01-10T06:24:09.578Z,-3.59
2024-01-10T06:26:36.783Z,-3.60
2024-01-10T06:29:03.935Z,-3.60
2024-01-10T06:31:31.068Z,-3.60
2024-01-10T06:33:58.180Z,-3.67
2024-01-10T06:36:25.584Z,-3.63
2024-01-10T06:38:52.750Z,-3.64
2024-01-10T06:41:25.802Z,-3.62
2024-01-10T06:43:54.324Z,-3.61
2024-01-10T06:46:22.688Z,-3.60
2024-01-10T06:48:49.904Z,-3.56
2024-01-10T06:51:18.078Z,-3.55
2024-01-10T06:53:45.087Z,-3.59
2024-01-10T06:56:12.628Z,-3.60
2024-01-10T06:58:40.859Z,-3.59
2024-01-10T07:01:15.290Z,-3.59
2024-01-10T07:03:42.911Z,-3.59
2024-01-10T07:06:10.263Z,-3.59
2024-01-10T07:08:37.761Z,-3.55
2024-01-10T07:11:05.111Z,-3.56
2024-01-10T07:13:33.032Z,-3.59
2024-01-10T07:16:03.489Z,-3.60
2024-01-10T07:18:31.214Z,-3.58
2024-01-10T07:20:58.471Z,-3.59
2024-01-10T07:23:25.726Z,-3.58
2024-01-10T07:25:53.928Z,-3.60
2024-01-10T07:28:21.902Z,-3.55
2024-01-10T07:30:50.146Z,-3.43
2024-01-10T07:33:17.392Z,-3.36
2024-01-10T07:35:44.970Z,-3.33
2024-01-10T07:38:12.167Z,-3.25
2024-01-10T07:40:39.270Z,-3.15
2024-01-10T07:43:06.341Z,-3.08
2024-01-10T07:45:34.937Z,-2.98
2024-01-10T07:48:02.270Z,-2.82
2024-01-10T07:50:30.269Z,-2.71
2024-01-10T07:52:58.067Z,-2.65
2024-01-10T07:55:25.161Z,-2.56
2024-01-10T07:57:53.317Z,-2.49
2024-01-10T08:00:21.975Z,-2.50
2024-01-10T08:02:50.218Z,-2.50
2024-01-10T08:05:17.543Z,-2.48
2024-01-10T08:07:44.800Z,-2.51
2024-01-10T08:10:12.102Z,-2.44
2024-01-10T08:12:45.843Z,-2.39
2024-01-10T08:15:12.939Z,-2.35
2024-01-10T08:17:40.130Z,-2.20
2024-01-10T08:20:10.265Z,-1.99
2024-01-10T08:22:37.503Z,-1.77
2024-01-10T08:25:06.021Z,-1.52
2024-01-10T08:27:33.142Z,-1.38
2024-01-10T08:30:00.675Z,-1.30
2024-01-10T08:32:27.875Z,-1.20
2024-01-10T08:34:54.946Z,-1.10
2024-01-10T08:37:22.191Z,-1.10
2024-01-10T08:39:49.347Z,-1.09
2024-01-10T08:42:16.581Z,-1.00
2024-01-10T08:44:44.849Z,-0.93
2024-01-10T08:47:12.052Z,-0.76
2024-01-10T08:49:39.749Z,-0.71
2024-01-10T08:52:07.175Z,-0.60
2024-01-10T08:54:35.254Z,-0.57
2024-01-10T08:57:02.309Z,-0.51
2024-01-10T08:59:29.767Z,-0.41
2024-01-10T09:01:57.375Z,-0.31
2024-01-10T09:04:24.438Z,-0.22
2024-01-10T09:06:51.831Z,-0.13
2024-01-10T09:09:22.431Z,-0.05
2024-01-10T09:11:50.056Z,0.22
2024-01-10T09:14:17.236Z,0.46
2024-01-10T09:16:44.715Z,0.54
2024-01-10T09:19:12.370Z,0.72
2024-01-10T09:21:41.709Z,0.80
2024-01-10T09:24:21.728Z,0.79
2024-01-10T09:26:56.217Z,0.79
2024-01-10T09:29:25.702Z,0.98
2024-01-10T09:31:53.044Z,1.07
2024-01-10T09:34:21.646Z,1.07
2024-01-10T09:36:49.453Z,0.99
2024-01-10T09:39:18.292Z,0.79
2024-01-10T09:41:51.746Z,0.78
2024-01-10T09:44:20.309Z,0.81
2024-01-10T09:46:54.471Z,0.85
2024-01-10T09:49:23.915Z,1.24
2024-01-10T09:51:54.907Z,2.03
2024-01-10T09:54:27.416Z,2.88
2024-01-10T09:56:54.999Z,3.29
2024-01-10T09:59:22.319Z,3.90
2024-01-10T10:01:49.879Z,4.34
2024-01-10T10:04:20.368Z,4.44
2024-01-10T10:06:47.836Z,4.51
2024-01-10T10:09:17.389Z,4.54
2024-01-10T10:11:44.787Z,4.59
2024-01-10T10:14:20.390Z,4.60
2024-01-10T10:16:47.775Z,4.27
2024-01-10T10:19:34.219Z,3.25
2024-01-10T10:22:12.082Z,2.78
2024-01-10T10:24:41.039Z,2.61
2024-01-10T10:27:12.972Z,2.48
2024-01-10T10:29:41.050Z,2.38
2024-01-10T10:32:10.296Z,2.11
2024-01-10T10:34:37.604Z,1.95
2024-01-10T10:37:06.436Z,1.78
2024-01-10T10:39:33.664Z,1.55
2024-01-10T10:42:02.734Z,1.43
2024-01-10T10:44:37.463Z,1.24
2024-01-10T10:47:13.685Z,1.26
2024-01-10T10:49:56.525Z,1.30
2024-01-10T10:52:26.283Z,1.21
2024-01-10T10:54:58.581Z,1.19
2024-01-10T10:57:29.129Z,1.26
2024-01-10T10:59:58.875Z,1.21
2024-01-10T11:02:30.203Z,1.19
2024-01-10T11:05:02.838Z,1.32
2024-01-10T11:07:30.172Z,1.38
2024-01-10T11:10:02.235Z,1.30
2024-01-10T11:13:11.942Z,1.15
2024-01-10T11:16:17.967Z,1.07
2024-01-10T11:19:12.107Z,1.33
2024-01-10T11:21:50.930Z,1.27
2024-01-10T11:24:21.174Z,1.21
2024-01-10T11:26:48.422Z,1.10
2024-01-10T11:29:17.259Z,1.12
2024-01-10T11:31:54.079Z,0.87
2024-01-10T11:34:28.343Z,0.87
2024-01-10T11:37:14.252Z,0.79
2024-01-10T11:39:45.360Z,0.58
2024-01-10T11:42:13.657Z,0.62
2024-01-10T11:44:52.258Z,0.64
2024-01-10T11:47:21.548Z,0.59
2024-01-10T11:50:00.535Z,0.55
2024-01-10T11:52:35.978Z,0.51
2024-01-10T11:55:04.470Z,0.40
2024-01-10T11:57:33.769Z,0.41
2024-01-10T12:00:02.214Z,0.39
2024-01-10T12:02:32.091Z,0.30
2024-01-10T12:05:00.208Z,0.33
2024-01-10T12:07:27.564Z,0.41
2024-01-10T12:09:56.430Z,0.52
2024-01-10T12:12:23.756Z,0.55
2024-01-10T12:14:53.192Z,0.53
2024-01-10T12:17:20.972Z,0.50
2024-01-10T12:19:49.860Z,0.38
2024-01-10T12:22:20.128Z,0.26
2024-01-10T12:24:52.024Z,0.32
2024-01-10T12:27:23.023Z,0.27
2024-01-10T12:29:54.135Z,0.30
2024-01-10T12:32:25.510Z,0.27
2024-01-10T12:35:03.345Z,0.21
2024-01-10T12:37:30.739Z,0.16
2024-01-10T12:39:58.675Z,0.31
2024-01-10T12:42:26.064Z,0.43
2024-01-10T12:44:53.146Z,0.51
2024-01-10T12:47:22.827Z,0.42
2024-01-10T12:49:51.247Z,0.27
2024-01-10T12:52:22.654Z,0.16
2024-01-10T12:54:50.556Z,-0.06
2024-01-10T12:57:17.977Z,-0.19
2024-01-10T12:59:46.762Z,-0.20
2024-01-10T13:02:13.924Z,-0.25
2024-01-10T13:04:41.210Z,-0.34
2024-01-10T13:07:08.393Z,-0.27
2024-01-10T13:09:36.752Z,-0.13
2024-01-10T13:12:05.728Z,-0.07
2024-01-10T13:14:33.485Z,-0.11
2024-01-10T13:17:01.232Z,-0.16
2024-01-10T13:19:28.780Z,-0.14
2024-01-10T13:21:56.826Z,-0.18
2024-01-10T13:24:24.019Z,-0.20
2024-01-10T13:26:51.235Z,-0.20
2024-01-10T13:29:18.427Z,-0.24
2024-01-10T13:31:45.882Z,-0.21
2024-01-10T13:34:13.217Z,-0.22
2024-01-10T13:36:40.885Z,-0.23
2024-01-10T13:39:08.780Z,-0.27
2024-01-10T13:41:36.527Z,-0.27
2024-01-10T13:44:05.257Z,-0.16
2024-01-10T13:46:33.361Z,-0.23
2024-01-10T13:49:03.411Z,-0.26
2024-01-10T13:51:31.479Z,-0.37
2024-01-10T13:53:58.709Z,-0.36
2024-01-10T13:56:26.074Z,-0.40
2024-01-10T13:58:53.140Z,-0.41
2024-01-10T14:01:20.312Z,-0.42
2024-01-10T14:03:47.640Z,-0.52
2024-01-10T14:06:14.967Z,-0.45
2024-01-10T14:08:45.045Z,-0.39
2024-01-10T14:11:12.227Z,-0.40
2024-01-10T14:13:39.331Z,-0.38
2024-01-10T14:16:06.561Z,-0.38
2024-01-10T14:18:34.297Z,-0.49
2024-01-10T14:21:01.618Z,-0.51
2024-01-10T14:23:28.711Z,-0.52
2024-01-10T14:25:55.933Z,-0.55
2024-01-10T14:28:23.895Z,-0.54
2024-01-10T14:30:52.108Z,-0.56
2024-01-10T14:33:21.583Z,-0.65
2024-01-10T14:35:48.966Z,-0.69
2024-01-10T14:38:16.276Z,-0.73
2024-01-10T14:40:43.438Z,-0.76
2024-01-10T14:43:10.490Z,-0.73
2024-01-10T14:45:37.645Z,-0.68
2024-01-10T14:48:05.528Z,-0.72
2024-01-10T14:50:32.790Z,-0.81
2024-01-10T14:52:59.975Z,-0.80
2024-01-10T14:55:27.214Z,-0.74
2024-01-10T14:57:54.295Z,-0.80
2024-01-10T15:00:21.575Z,-0.74
2024-01-10T15:02:49.792Z,-0.76
2024-01-10T15:05:17.518Z,-0.75
2024-01-10T15:07:44.595Z,-0.72
2024-01-10T15:10:11.921Z,-0.78
2024-01-10T15:12:39.093Z,-0.81
2024-01-10T15:15:07.377Z,-0.80
2024-01-10T15:17:35.001Z,-0.85
2024-01-10T15:20:02.227Z,-0.87
2024-01-10T15:22:30.552Z,-0.84
2024-01-10T15:24:57.597Z,-0.90
2024-01-10T15:27:24.690Z,-0.90
2024-01-10T15:29:56.822Z,-0.94
2024-01-10T15:32:34.999Z,-1.00
2024-01-10T15:35:06.733Z,-0.96
2024-01-10T15:37:34.412Z,-0.97
2024-01-10T15:40:02.118Z,-1.05
2024-01-10T15:42:30.012Z,-1.02
2024-01-10T15:44:57.159Z,-1.02
2024-01-10T15:47:25.101Z,-1.04
2024-01-10T15:49:52.759Z,-1.02
2024-01-10T15:52:28.521Z,-1.01
2024-01-10T15:54:56.631Z,-1.02
2024-01-10T15:57:27.085Z,-1.12
2024-01-10T15:59:55.922Z,-1.12
2024-01-10T16:02:23.380Z,-1.11
2024-01-10T16:04:51.475Z,-1.10
2024-01-10T16:07:21.806Z,-1.09
2024-01-10T16:09:49.452Z,-1.07
2024-01-10T16:12:19.106Z,-1.09
2024-01-10T16:14:48.953Z,-1.12
2024-01-10T16:17:19.212Z,-1.14
2024-01-10T16:20:05.862Z,-1.18
2024-01-10T16:22:37.577Z,-1.20
2024-01-10T16:25:06.502Z,-1.26
2024-01-10T16:27:33.575Z,-1.33
2024-01-10T16:30:01.873Z,-1.37
2024-01-10T16:32:30.789Z,-1.33
2024-01-10T16:34:59.593Z,-1.35
2024-01-10T16:37:26.773Z,-1.31
2024-01-10T16:39:54.671Z,-1.30
2024-01-10T16:42:21.935Z,-1.26
2024-01-10T16:44:49.379Z,-1.27
2024-01-10T16:47:16.792Z,-1.26
2024-01-10T16:49:47.021Z,-1.24
2024-01-10T16:52:14.445Z,-1.21
2024-01-10T16:54:41.746Z,-1.26
2024-01-10T16:57:09.826Z,-1.29
2024-01-10T16:59:36.945Z,-1.30
2024-01-10T17:02:04.161Z,-1.27
2024-01-10T17:04:31.621Z,-1.27
2024-01-10T17:06:58.685Z,-1.26
2024-01-10T17:09:28.069Z,-1.25
2024-01-10T17:11:55.137Z,-1.26
2024-01-10T17:14:22.294Z,-1.27
2024-01-10T17:16:49.653Z,-1.28
2024-01-10T17:19:16.834Z,-1.27
2024-01-10T17:21:44.183Z,-1.28
2024-01-10T17:24:11.519Z,-1.28
2024-01-10T17:26:38.703Z,-1.28
2024-01-10T17:29:08.347Z,-1.28
2024-01-10T17:31:35.460Z,-1.28
2024-01-10T17:34:02.860Z,-1.25
2024-01-10T17:36:38.029Z,-1.26
2024-01-10T17:39:06.160Z,-1.29
2024-01-10T17:41:33.861Z,-1.21
2024-01-10T17:44:01.178Z,-1.14
2024-01-10T17:46:28.301Z,-1.12
2024-01-10T17:48:55.570Z,-1.12
2024-01-10T17:51:23.280Z,-1.23
2024-01-10T17:53:50.458Z,-1.31
2024-01-10T17:56:17.734Z,-1.25
2024-01-10T17:58:44.845Z,-1.26
2024-01-10T18:01:12.379Z,-1.34
2024-01-10T18:03:39.513Z,-1.37
2024-01-10T18:06:07.155Z,-1.31
2024-01-10T18:08:34.556Z,-1.24
2024-01-10T18:11:01.830Z,-1.19
2024-01-10T18:13:28.854Z,-1.16
2024-01-10T18:15:55.961Z,-1.13
2024-01-10T18:18:23.929Z,-1.15
2024-01-10T18:20:51.303Z,-1.17
2024-01-10T18:23:18.392Z,-1.18
2024-01-10T18:25:48.140Z,-1.18
2024-01-10T18:28:15.404Z,-1.22
2024-01-10T18:30:42.471Z,-1.26
2024-01-10T18:33:10.699Z,-1.28
2024-01-10T18:35:38.307Z,-1.26
2024-01-10T18:38:05.982Z,-1.26
2024-01-10T18:40:33.109Z,-1.24
2024-01-10T18:43:00.166Z,-1.15
2024-01-10T18:45:27.196Z,-1.12
2024-01-10T18:47:54.534Z,-1.11
2024-01-10T18:50:21.730Z,-1.12
2024-01-10T18:52:48.843Z,-1.14
2024-01-10T18:55:15.913Z,-1.15
2024-01-10T18:57:42.968Z,-1.16
2024-01-10T19:00:13.408Z,-1.15
2024-01-10T19:02:40.487Z,-1.14
2024-01-10T19:05:08.070Z,-1.13
2024-01-10T19:07:35.142Z,-1.15
2024-01-10T19:10:02.879Z,-1.15
2024-01-10T19:12:30.197Z,-1.14
2024-01-10T19:14:57.253Z,-1.22
2024-01-10T19:17:24.445Z,-1.27
2024-01-10T19:19:51.645Z,-1.29
2024-01-10T19:22:18.738Z,-1.36
2024-01-10T19:24:45.818Z,-1.39
2024-01-10T19:27:13.256Z,-1.43
2024-01-10T19:29:40.509Z,-1.39
2024-01-10T19:32:07.556Z,-1.40
2024-01-10T19:34:34.696Z,-1.47
2024-01-10T19:37:02.136Z,-1.48
2024-01-10T19:39:29.260Z,-1.57
2024-01-10T19:41:56.337Z,-1.66
2024-01-10T19:44:23.447Z,-1.66
2024-01-10T19:46:50.793Z,-1.65
2024-01-10T19:49:18.109Z,-1.61
2024-01-10T19:51:48.154Z,-1.60
2024-01-10T19:54:16.164Z,-1.62
2024-01-10T19:56:43.273Z,-1.66
2024-01-10T19:59:10.339Z,-1.65
2024-01-10T20:01:37.362Z,-1.64
2024-01-10T20:04:04.620Z,-1.64
2024-01-10T20:06:31.815Z,-1.62
2024-01-10T20:08:58.952Z,-1.65
2024-01-10T20:11:26.704Z,-1.84
2024-01-10T20:13:53.879Z,-1.95
2024-01-10T20:16:20.941Z,-2.00
2024-01-10T20:18:48.126Z,-2.02
2024-01-10T20:21:16.864Z,-2.09
2024-01-10T20:23:48.497Z,-2.15
2024-01-10T20:26:16.260Z,-2.26
2024-01-10T20:28:43.337Z,-2.32
2024-01-10T20:31:10.948Z,-2.37
2024-01-10T20:33:38.347Z,-2.50
2024-01-10T20:36:06.071Z,-2.59
2024-01-10T20:38:33.256Z,-2.60
2024-01-10T20:41:00.743Z,-2.63
2024-01-10T20:43:28.222Z,-2.71
2024-01-10T20:45:55.535Z,-2.79
2024-01-10T20:48:22.618Z,-2.89
2024-01-10T20:50:49.689Z,-2.93
2024-01-10T20:53:17.244Z,-2.93
2024-01-10T20:55:44.777Z,-2.91
2024-01-10T20:58:12.388Z,-2.92
2024-01-10T21:00:40.444Z,-2.98
2024-01-10T21:03:07.859Z,-3.01
2024-01-10T21:05:35.148Z,-3.05
2024-01-10T21:08:02.313Z,-3.07
2024-01-10T21:10:29.424Z,-3.12
2024-01-10T21:12:56.536Z,-3.14
2024-01-10T21:15:23.744Z,-3.17
2024-01-10T21:17:51.046Z,-3.23
2024-01-10T21:20:18.239Z,-3.29
2024-01-10T21:22:45.283Z,-3.30
2024-01-10T21:25:12.536Z,-3.40
2024-01-10T21:27:41.708Z,-3.38
2024-01-10T21:30:09.623Z,-3.40
2024-01-10T21:32:36.943Z,-3.41
2024-01-10T21:35:04.419Z,-3.44
2024-01-10T21:37:31.599Z,-3.48
2024-01-10T21:39:58.924Z,-3.54
2024-01-10T21:42:27.055Z,-3.57
2024-01-10T21:44:55.240Z,-3.58
2024-01-10T21:47:22.390Z,-3.55
2024-01-10T21:49:49.856Z,-3.58
2024-01-10T21:52:17.005Z,-3.60
2024-01-10T21:54:44.129Z,-3.60
2024-01-10T21:57:11.133Z,-3.63
2024-01-10T21:59:41.690Z,-3.67
2024-01-10T22:02:08.894Z,-3.76
2024-01-10T22:04:36.243Z,-3.85
2024-01-10T22:07:03.617Z,-3.88
2024-01-10T22:09:30.740Z,-3.87
2024-01-10T22:11:57.768Z,-3.91
2024-01-10T22:14:24.819Z,-3.89
2024-01-10T22:16:52.012Z,-3.90
2024-01-10T22:19:19.330Z,-3.89
2024-01-10T22:21:46.571Z,-3.90
2024-01-10T22:24:13.668Z,-3.86
2024-01-10T22:26:40.738Z,-3.92
2024-01-10T22:29:07.834Z,-3.99
2024-01-10T22:31:34.981Z,-4.04
2024-01-10T22:34:02.068Z,-3.98
2024-01-10T22:36:29.207Z,-3.96
2024-01-10T22:38:56.789Z,-3.99
2024-01-10T22:41:23.923Z,-4.07
2024-01-10T22:43:51.035Z,-4.16
2024-01-10T22:46:18.500Z,-4.25
2024-01-10T22:48:45.652Z,-4.28
2024-01-10T22:51:12.922Z,-4.36
2024-01-10T22:53:40.385Z,-4.41
2024-01-10T22:56:07.725Z,-4.43
2024-01-10T22:58:34.768Z,-4.46
2024-01-10T23:01:02.249Z,-4.52
2024-01-10T23:03:33.234Z,-4.55
2024-01-10T23:06:01.930Z,-4.60
2024-01-10T23:08:29.769Z,-4.59
2024-01-10T23:10:58.691Z,-4.58
2024-01-10T23:13:26.054Z,-4.59
2024-01-10T23:15:53.491Z,-4.64
2024-01-10T23:18:22.000Z,-4.70
2024-01-10T23:20:49.757Z,-4.70
2024-01-10T23:23:16.856Z,-4.64
2024-01-10T23:25:44.047Z,-4.61
2024-01-10T23:28:11.134Z,-4.57
2024-01-10T23:30:38.239Z,-4.49
2024-01-10T23:33:05.630Z,-4.41
2024-01-10T23:35:40.677Z,-4.41
2024-01-10T23:38:15.061Z,-4.42
2024-01-10T23:40:42.235Z,-4.41
2024-01-10T23:43:15.771Z,-4.38
2024-01-10T23:45:52.366Z,-4.40
2024-01-10T23:48:19.624Z,-4.39
2024-01-10T23:50:46.761Z,-4.41
2024-01-10T23:53:14.071Z,-4.41
2024-01-10T23:55:41.202Z,-4.42
2024-01-10T23:58:08.421Z,-4.47
